Time;durP1;ratioP1;P1;durP2;ratioP2;P2;SDS_P1;SDS_P2;PMS_P1;PMS_P2;Temp;Humidity;BMP_temperature;BMP_pressure;BME280_temperature;BME280_humidity;BME280_pressure;Samples;Min_cycle;Max_cycle;Signal;HPM_P1;HPM_P2
2023/09/01 00:02:13;;;;;;;15.35;12.82;;;;;;;21.64;87.64;98398.81;4887146;29;20510;-85
2023/09/01 00:04:57;;;;;;;15.93;13.00;;;;;;;21.55;87.78;98396.75;4887766;29;20056;-88
2023/09/01 00:07:41;;;;;;;15.05;12.52;;;;;;;21.59;87.91;98396.19;4887722;29;20058;-85
2023/09/01 00:10:26;;;;;;;15.55;12.82;;;;;;;21.63;87.60;98386.56;4886948;29;20039;-87
2023/09/01 00:13:10;;;;;;;14.18;12.68;;;;;;;21.50;87.53;98388.00;4887886;29;20083;-88
2023/09/01 00:15:54;;;;;;;13.25;11.80;;;;;;;21.68;87.79;98394.53;4887281;29;20047;-87
2023/09/01 00:18:38;;;;;;;14.30;12.10;;;;;;;21.70;87.33;98395.03;4885777;29;20047;-85
2023/09/01 00:21:22;;;;;;;16.20;13.63;;;;;;;21.66;87.50;98400.16;4887310;29;20048;-85
2023/09/01 00:24:06;;;;;;;14.02;11.90;;;;;;;21.64;87.74;98390.81;4888683;29;20044;-86
2023/09/01 00:26:50;;;;;;;15.88;13.35;;;;;;;21.67;87.93;98403.63;4885493;29;20140;-85
2023/09/01 00:29:34;;;;;;;14.68;12.80;;;;;;;21.75;87.84;98402.22;4885811;29;20047;-84
2023/09/01 00:32:18;;;;;;;15.98;12.73;;;;;;;21.70;87.54;98384.34;4889310;29;20048;-86
2023/09/01 00:35:05;;;;;;;16.13;13.27;;;;;;;21.72;87.96;98398.22;4883056;29;20060;-85
2023/09/01 00:37:51;;;;;;;16.27;13.50;;;;;;;21.62;88.43;98395.66;4882748;29;20701;-86
2023/09/01 00:40:35;;;;;;;15.38;13.48;;;;;;;21.71;88.10;98390.47;4886704;29;20043;-85
2023/09/01 00:43:19;;;;;;;16.63;14.52;;;;;;;21.62;88.12;98374.28;4889033;29;20047;-86
2023/09/01 00:46:03;;;;;;;15.65;13.60;;;;;;;21.57;88.54;98387.66;4888887;29;20507;-86
2023/09/01 00:48:47;;;;;;;16.50;14.38;;;;;;;21.74;88.21;98384.59;4887333;29;20522;-86
2023/09/01 00:51:33;;;;;;;19.80;16.15;;;;;;;21.69;88.08;98385.44;4888486;29;20044;-86
2023/09/01 00:54:17;;;;;;;19.63;16.85;;;;;;;21.62;88.40;98384.97;4886775;29;20112;-86
2023/09/01 00:57:01;;;;;;;19.13;15.60;;;;;;;21.66;88.31;98391.34;4889988;29;21927;-85
2023/09/01 00:59:45;;;;;;;20.73;17.88;;;;;;;21.65;88.58;98384.44;4889788;29;20044;-85
2023/09/01 01:02:29;;;;;;;21.45;18.75;;;;;;;21.67;88.15;98387.59;4887263;29;20100;-85
2023/09/01 01:05:15;;;;;;;21.23;17.67;;;;;;;21.69;88.32;98388.09;4882682;29;20040;-85
2023/09/01 01:08:34;;;;;;;22.08;18.38;;;;;;;21.61;88.28;98383.34;4887576;29;20080;-84
2023/09/01 01:11:36;;;;;;;19.70;16.73;;;;;;;21.72;88.36;98384.88;4876535;29;20085;-84
2023/09/01 01:14:38;;;;;;;24.15;19.45;;;;;;;21.69;88.48;98380.88;4887188;29;20047;-86
2023/09/01 01:17:24;;;;;;;24.50;20.15;;;;;;;21.44;88.96;98373.94;4884670;29;20121;-85
2023/09/01 01:20:14;;;;;;;23.88;19.65;;;;;;;21.44;89.65;98383.81;4888315;29;20120;-85
2023/09/01 01:23:11;;;;;;;25.48;20.38;;;;;;;21.58;89.41;98378.56;4885987;29;20549;-85
2023/09/01 01:25:55;;;;;;;25.23;20.88;;;;;;;21.66;88.75;98380.66;4886584;29;20056;-85
2023/09/01 01:28:39;;;;;;;24.88;20.25;;;;;;;21.61;88.56;98375.34;4888151;29;20048;-84
2023/09/01 01:31:23;;;;;;;27.00;21.00;;;;;;;21.67;88.46;98385.72;4886150;29;20040;-85
2023/09/01 01:34:24;;;;;;;23.80;19.38;;;;;;;21.66;88.63;98384.13;4885651;29;20128;-86
2023/09/01 01:37:20;;;;;;;24.02;19.48;;;;;;;21.73;88.57;98381.13;4893908;29;20047;-85
2023/09/01 01:40:06;;;;;;;21.50;17.70;;;;;;;21.73;88.41;98373.09;4892547;29;20579;-85
2023/09/01 01:42:51;;;;;;;29.40;22.70;;;;;;;21.73;88.23;98370.44;4889631;29;20048;-85
2023/09/01 01:45:40;;;;;;;25.17;19.05;;;;;;;21.74;88.67;98380.03;4889287;29;20114;-85
2023/09/01 01:48:24;;;;;;;28.45;22.30;;;;;;;21.66;89.12;98378.00;4891679;29;20044;-86
2023/09/01 01:51:08;;;;;;;28.58;21.00;;;;;;;21.67;89.15;98377.69;4890895;29;20071;-84
2023/09/01 01:53:52;;;;;;;26.42;19.55;;;;;;;21.72;88.95;98379.53;4889420;29;20120;-85
2023/09/01 01:56:36;;;;;;;25.25;19.92;;;;;;;21.70;88.96;98379.03;4889462;29;20085;-85
2023/09/01 01:59:20;;;;;;;28.13;21.60;;;;;;;21.71;88.84;98382.47;4891627;29;20052;-85
2023/09/01 02:02:05;;;;;;;27.02;20.98;;;;;;;21.68;88.81;98389.97;4890850;29;20047;-85
2023/09/01 02:04:49;;;;;;;29.10;21.50;;;;;;;21.71;89.08;98385.94;4891622;29;20051;-84
2023/09/01 02:07:34;;;;;;;28.52;21.60;;;;;;;21.71;88.58;98377.94;4889247;29;20051;-87
2023/09/01 02:10:18;;;;;;;28.98;20.95;;;;;;;21.75;88.94;98378.94;4891446;29;20047;-86
2023/09/01 02:13:03;;;;;;;29.50;22.35;;;;;;;21.70;89.26;98376.34;4890394;29;20051;-87
2023/09/01 02:15:54;;;;;;;26.27;20.27;;;;;;;21.69;89.48;98380.09;4891506;29;20056;-86
2023/09/01 02:18:39;;;;;;;31.13;22.73;;;;;;;21.57;89.58;98368.97;4891579;29;20474;-85
2023/09/01 02:21:24;;;;;;;29.45;21.10;;;;;;;21.66;89.68;98389.47;4890238;29;20091;-85
2023/09/01 02:24:08;;;;;;;47.58;23.38;;;;;;;21.58;89.39;98381.25;4887672;29;20124;-85
2023/09/01 02:26:52;;;;;;;33.67;22.45;;;;;;;21.58;89.60;98382.06;4892370;29;20144;-85
2023/09/01 02:29:36;;;;;;;28.25;20.98;;;;;;;21.61;89.48;98381.47;4889220;29;20112;-85
2023/09/01 02:32:20;;;;;;;53.40;25.20;;;;;;;21.57;90.00;98377.78;4890108;29;20072;-85
2023/09/01 02:35:06;;;;;;;35.38;24.05;;;;;;;21.61;89.95;98375.34;4887674;29;20059;-86
2023/09/01 02:37:50;;;;;;;100.65;27.63;;;;;;;21.50;89.93;98380.81;4887455;29;20048;-85
2023/09/01 02:40:33;;;;;;;36.40;24.83;;;;;;;21.48;90.41;98374.94;4887961;29;20400;-84
2023/09/01 02:43:17;;;;;;;39.42;25.85;;;;;;;21.57;90.11;98380.47;4890526;29;20097;-85
2023/09/01 02:46:03;;;;;;;50.67;25.95;;;;;;;21.54;90.24;98378.38;4890661;29;20056;-85
2023/09/01 02:48:49;;;;;;;49.13;25.83;;;;;;;21.41;91.10;98379.81;4888448;29;20047;-86
2023/09/01 02:51:33;;;;;;;34.78;24.63;;;;;;;21.59;91.01;98380.16;4889470;29;20104;-84
2023/09/01 02:54:17;;;;;;;38.38;24.23;;;;;;;21.68;89.94;98381.19;4891106;29;20075;-86
2023/09/01 02:57:01;;;;;;;31.08;22.67;;;;;;;21.81;89.81;98382.38;4889641;29;20064;-84
2023/09/01 02:59:45;;;;;;;31.80;23.08;;;;;;;21.81;89.60;98382.38;4890481;29;20043;-84
2023/09/01 03:02:29;;;;;;;30.85;21.65;;;;;;;21.80;89.57;98378.88;4888882;29;20043;-85
2023/09/01 03:05:14;;;;;;;29.27;21.65;;;;;;;21.69;89.74;98377.44;4888588;29;20104;-85
2023/09/01 03:07:58;;;;;;;28.02;20.75;;;;;;;21.74;90.00;98382.69;4888620;29;20525;-85
2023/09/01 03:10:42;;;;;;;30.67;21.40;;;;;;;21.85;89.78;98393.28;4887775;29;20067;-86
2023/09/01 03:13:27;;;;;;;31.73;22.15;;;;;;;21.83;89.91;98382.88;4886969;29;20067;-85
2023/09/01 03:16:11;;;;;;;30.63;21.65;;;;;;;21.90;90.04;98395.88;4887140;29;20047;-86
2023/09/01 03:18:59;;;;;;;29.20;21.13;;;;;;;21.99;89.42;98388.81;4887062;29;20517;-84
2023/09/01 03:21:43;;;;;;;30.60;20.65;;;;;;;21.81;89.83;98391.19;4889170;29;20051;-85
2023/09/01 03:24:28;;;;;;;33.03;21.80;;;;;;;21.75;90.50;98389.63;4887001;29;20067;-86
2023/09/01 03:27:14;;;;;;;34.20;23.15;;;;;;;21.74;90.06;98385.38;4890756;29;20124;-85
2023/09/01 03:29:58;;;;;;;42.65;24.55;;;;;;;21.65;90.73;98384.44;4889208;29;20058;-85
2023/09/01 03:32:42;;;;;;;35.45;24.05;;;;;;;21.68;90.83;98391.88;4889151;29;20044;-86
2023/09/01 03:35:25;;;;;;;34.35;22.92;;;;;;;21.64;91.03;98385.47;4889894;29;20613;-86
2023/09/01 03:38:09;;;;;;;34.53;24.20;;;;;;;21.77;90.84;98398.16;4889209;29;20127;-85
2023/09/01 03:40:53;;;;;;;45.97;26.30;;;;;;;21.68;90.83;98386.53;4890593;29;20506;-85
2023/09/01 03:43:37;;;;;;;42.08;26.30;;;;;;;21.65;90.93;98393.22;4889714;29;20515;-85
2023/09/01 03:46:21;;;;;;;39.15;26.15;;;;;;;21.71;91.25;98399.31;4886728;29;20117;-84
2023/09/01 03:49:05;;;;;;;42.83;28.70;;;;;;;21.75;91.12;98394.97;4886634;29;20048;-86
2023/09/01 03:51:49;;;;;;;44.38;29.42;;;;;;;21.75;91.14;98384.28;4887866;29;20523;-85
2023/09/01 03:54:33;;;;;;;37.85;25.88;;;;;;;21.77;90.93;98389.38;4886733;29;20100;-84
2023/09/01 03:57:17;;;;;;;44.85;27.95;;;;;;;21.73;91.13;98386.47;4887003;29;20088;-84
2023/09/01 04:00:11;;;;;;;39.50;27.63;;;;;;;21.74;90.99;98387.25;4884114;29;20051;-85
2023/09/01 04:02:55;;;;;;;63.63;31.05;;;;;;;21.72;91.02;98389.44;4885606;29;20040;-84
2023/09/01 04:05:39;;;;;;;49.38;30.90;;;;;;;21.80;91.32;98391.47;4887221;29;20071;-84
2023/09/01 04:08:23;;;;;;;72.25;31.75;;;;;;;21.77;91.02;98392.81;4884180;29;20140;-84
2023/09/01 04:11:07;;;;;;;53.10;31.25;;;;;;;21.76;91.40;98390.44;4887635;29;20514;-85
2023/09/01 04:13:55;;;;;;;55.47;31.70;;;;;;;21.74;91.42;98390.72;4889979;29;20088;-85
2023/09/01 04:16:40;;;;;;;93.78;33.88;;;;;;;21.71;91.30;98390.47;4886690;29;20039;-84
2023/09/01 04:19:23;;;;;;;88.53;33.55;;;;;;;21.74;91.17;98393.38;4888505;29;20051;-84
2023/09/01 04:22:07;;;;;;;60.88;30.50;;;;;;;21.76;91.10;98387.78;4885529;29;20048;-85
2023/09/01 04:24:51;;;;;;;51.53;30.10;;;;;;;21.74;91.32;98387.25;4888211;29;20047;-84
2023/09/01 04:27:35;;;;;;;45.42;29.58;;;;;;;21.74;91.25;98382.69;4886266;29;20103;-85
2023/09/01 04:30:19;;;;;;;42.95;27.10;;;;;;;21.81;90.78;98396.53;4886536;29;20095;-87
2023/09/01 04:33:05;;;;;;;43.72;28.20;;;;;;;21.79;91.10;98393.31;4886756;29;20051;-84
2023/09/01 04:35:59;;;;;;;40.78;26.85;;;;;;;21.86;91.16;98400.22;4889932;29;20473;-83
2023/09/01 04:38:44;;;;;;;44.78;27.90;;;;;;;21.82;91.25;98390.09;4887231;29;20040;-84
2023/09/01 04:41:28;;;;;;;54.90;30.23;;;;;;;21.79;90.89;98389.88;4893175;29;20051;-86
2023/09/01 04:44:13;;;;;;;45.60;27.92;;;;;;;22.09;89.67;98396.72;4889419;29;20044;-84
2023/09/01 04:46:57;;;;;;;45.75;28.90;;;;;;;22.22;89.55;98386.41;4886432;29;20103;-84
2023/09/01 04:49:41;;;;;;;42.08;28.40;;;;;;;22.03;90.10;98395.22;4886815;29;20100;-84
2023/09/01 04:52:25;;;;;;;48.03;29.35;;;;;;;21.87;90.61;98396.47;4884962;29;20063;-83
2023/09/01 04:55:09;;;;;;;45.42;27.83;;;;;;;21.76;91.19;98393.91;4888019;29;20063;-86
2023/09/01 04:57:53;;;;;;;45.83;29.02;;;;;;;21.76;91.48;98385.88;4885808;29;20451;-84
2023/09/01 05:00:38;;;;;;;42.13;26.13;;;;;;;21.80;91.67;98396.81;4884991;29;20100;-87
2023/09/01 05:03:22;;;;;;;48.90;27.95;;;;;;;21.78;91.60;98394.41;4886056;29;20047;-84
2023/09/01 05:06:07;;;;;;;43.35;26.55;;;;;;;21.76;91.97;98401.91;4884470;29;20100;-84
2023/09/01 05:08:51;;;;;;;42.60;26.75;;;;;;;21.77;91.78;98392.03;4885883;29;20646;-84
2023/09/01 05:11:35;;;;;;;42.40;24.58;;;;;;;21.76;91.74;98396.56;4888962;29;20184;-84
2023/09/01 05:14:19;;;;;;;39.33;23.75;;;;;;;21.75;91.78;98389.63;4886821;29;20510;-85
2023/09/01 05:17:03;;;;;;;36.17;22.13;;;;;;;21.78;91.55;98394.41;4885254;29;20054;-85
2023/09/01 05:19:47;;;;;;;33.47;21.98;;;;;;;21.88;91.58;98398.06;4887420;29;20508;-83
2023/09/01 05:22:31;;;;;;;34.78;21.70;;;;;;;21.82;91.71;98390.09;4888597;29;20952;-86
2023/09/01 05:25:15;;;;;;;35.13;22.92;;;;;;;21.83;91.39;98386.34;4885217;29;20052;-85
2023/09/01 05:27:59;;;;;;;34.08;20.77;;;;;;;21.91;91.66;98413.50;4884273;29;20124;-87
2023/09/01 05:30:44;;;;;;;42.70;23.67;;;;;;;21.90;91.26;98409.25;4885991;29;20044;-86
2023/09/01 05:33:33;;;;;;;40.50;24.42;;;;;;;21.86;91.50;98410.91;4886855;29;20129;-86
2023/09/01 05:36:17;;;;;;;34.55;21.95;;;;;;;21.92;91.73;98418.59;4885345;29;20137;-85
2023/09/01 05:39:00;;;;;;;40.08;25.90;;;;;;;21.87;91.78;98401.81;4889682;29;20116;-86
2023/09/01 05:41:45;;;;;;;36.45;23.13;;;;;;;21.90;91.81;98414.59;4885434;29;20452;-85
2023/09/01 05:44:29;;;;;;;35.30;21.67;;;;;;;21.86;92.09;98410.91;4886117;29;20063;-87
2023/09/01 05:47:13;;;;;;;34.58;21.90;;;;;;;21.91;91.66;98413.50;4885933;29;20146;-87
2023/09/01 05:49:57;;;;;;;;;;;;;;;22.08;91.62;98421.84;4887451;29;20096;-86
2023/09/01 05:52:41;;;;;;;31.85;20.45;;;;;;;22.04;91.09;98426.19;4885631;29;19984;-86
2023/09/01 05:55:25;;;;;;;36.08;21.95;;;;;;;21.93;91.14;98414.00;4886106;29;20043;-85
2023/09/01 05:58:09;;;;;;;32.90;21.83;;;;;;;22.04;91.36;98422.72;4888280;29;20561;-86
2023/09/01 06:00:53;;;;;;;33.38;23.08;;;;;;;22.01;91.79;98428.63;4888048;29;20040;-86
2023/09/01 06:03:37;;;;;;;31.77;20.67;;;;;;;22.00;91.85;98435.84;4887256;29;20052;-86
2023/09/01 06:06:21;;;;;;;33.65;22.42;;;;;;;21.92;91.75;98436.47;4888236;29;20124;-86
2023/09/01 06:09:05;;;;;;;35.53;23.17;;;;;;;21.90;92.24;98428.72;4884958;29;20088;-86
2023/09/01 06:11:51;;;;;;;37.72;23.20;;;;;;;22.07;91.72;98430.16;4886627;29;20114;-85
2023/09/01 06:14:34;;;;;;;36.47;23.90;;;;;;;21.99;91.69;98428.13;4884685;29;20070;-87
2023/09/01 06:17:18;;;;;;;39.58;22.73;;;;;;;21.93;91.90;98432.72;4887272;29;20044;-86
2023/09/01 06:20:06;;;;;;;66.78;23.13;;;;;;;21.78;92.61;98429.13;4886784;29;20072;-86
2023/09/01 06:22:53;;;;;;;31.67;21.42;;;;;;;21.95;92.29;98435.91;4891712;29;20103;-86
2023/09/01 06:25:37;;;;;;;30.10;20.40;;;;;;;22.01;92.40;98440.13;4888383;29;20475;-86
2023/09/01 06:28:22;;;;;;;28.70;19.40;;;;;;;22.01;92.43;98436.66;4888852;29;20109;-86
2023/09/01 06:31:09;;;;;;;26.17;17.63;;;;;;;21.95;92.80;98438.56;4890455;29;20047;-86
2023/09/01 06:33:53;;;;;;;34.13;17.90;;;;;;;21.84;92.67;98440.56;4888498;29;20111;-86
2023/09/01 06:36:36;;;;;;;24.48;16.20;;;;;;;21.93;93.28;98440.72;4890245;29;20048;-86
2023/09/01 06:39:20;;;;;;;23.65;16.75;;;;;;;21.92;93.03;98447.16;4890639;29;20060;-86
2023/09/01 06:42:06;;;;;;;19.98;15.15;;;;;;;22.04;93.46;98455.59;4889696;29;20091;-87
2023/09/01 06:44:50;;;;;;;19.55;13.57;;;;;;;22.17;93.27;98455.97;4887334;29;20113;-86
2023/09/01 06:47:34;;;;;;;23.25;16.48;;;;;;;22.18;93.40;98466.38;4890194;29;20044;-86
2023/09/01 06:50:19;;;;;;;26.15;18.30;;;;;;;22.22;92.83;98456.69;4889769;29;20109;-85
2023/09/01 06:53:03;;;;;;;21.73;16.30;;;;;;;22.30;92.89;98471.31;4889589;29;20093;-85
2023/09/01 06:55:47;;;;;;;33.10;18.85;;;;;;;22.29;92.90;98471.59;4888204;29;20051;-86
2023/09/01 06:58:31;;;;;;;26.25;17.48;;;;;;;22.26;92.76;98472.97;4890008;29;20514;-86
2023/09/01 07:01:15;;;;;;;28.20;17.17;;;;;;;22.31;92.46;98486.25;4888282;29;20112;-86
2023/09/01 07:04:00;;;;;;;57.78;15.75;;;;;;;22.02;92.74;98483.66;4887089;29;20122;-87
2023/09/01 07:06:45;;;;;;;21.75;14.25;;;;;;;22.08;92.47;98483.31;4888184;29;20461;-87
2023/09/01 07:09:28;;;;;;;20.70;13.73;;;;;;;22.33;91.98;98494.78;4887388;29;20097;-85
2023/09/01 07:12:13;;;;;;;21.83;14.45;;;;;;;22.33;92.31;98499.38;4886040;29;20055;-87
2023/09/01 07:14:57;;;;;;;18.80;12.88;;;;;;;22.42;92.51;98499.53;4890183;29;20403;-86
2023/09/01 07:17:41;;;;;;;30.38;17.60;;;;;;;22.39;92.36;98492.88;4889365;29;20415;-86
2023/09/01 07:20:25;;;;;;;26.80;17.77;;;;;;;22.43;92.21;98493.09;4888506;29;20055;-86
2023/09/01 07:23:08;;;;;;;29.73;19.33;;;;;;;22.60;92.05;98498.78;4888227;29;20108;-86
2023/09/01 07:25:53;;;;;;;27.17;18.67;;;;;;;22.68;91.67;98498.13;4887632;29;20064;-86
2023/09/01 07:28:38;;;;;;;41.92;20.90;;;;;;;22.58;91.65;98500.94;4888072;29;20419;-86
2023/09/01 07:31:23;;;;;;;27.25;18.25;;;;;;;22.74;91.60;98498.06;4888999;29;20040;-86
2023/09/01 07:34:07;;;;;;;27.88;18.83;;;;;;;22.72;90.88;98503.72;4888211;29;20127;-85
2023/09/01 07:36:52;;;;;;;28.25;19.48;;;;;;;22.77;92.02;98506.31;4888533;29;20101;-87
2023/09/01 07:39:36;;;;;;;25.38;18.08;;;;;;;22.75;90.94;98500.47;4890549;29;20043;-86
2023/09/01 07:42:20;;;;;;;30.05;18.58;;;;;;;22.74;91.30;98504.22;4885998;29;20516;-86
2023/09/01 07:45:05;;;;;;;108.63;20.88;;;;;;;22.66;90.97;98516.34;4888903;29;20097;-85
2023/09/01 07:47:49;;;;;;;26.15;18.00;;;;;;;22.77;91.49;98510.84;4888795;29;20609;-86
2023/09/01 07:50:33;;;;;;;23.05;16.02;;;;;;;22.96;91.31;98522.34;4889244;29;20117;-86
2023/09/01 07:53:17;;;;;;;27.02;17.70;;;;;;;22.98;91.10;98516.72;4888985;29;20043;-85
2023/09/01 07:56:01;;;;;;;22.85;17.33;;;;;;;23.06;90.49;98521.41;4888421;29;20514;-87
2023/09/01 07:58:45;;;;;;;27.40;17.92;;;;;;;22.94;90.94;98513.06;4888452;29;20059;-86
2023/09/01 08:01:29;;;;;;;26.52;17.92;;;;;;;23.02;90.86;98536.47;4886250;29;20040;-86
2023/09/01 08:04:13;;;;;;;25.08;17.63;;;;;;;23.19;90.68;98538.66;4889006;29;20047;-87
2023/09/01 08:06:59;;;;;;;28.15;18.13;;;;;;;23.41;90.16;98539.16;4885540;29;20519;-87
2023/09/01 08:09:43;;;;;;;36.00;19.02;;;;;;;23.42;90.14;98548.78;4887050;29;20048;-87
2023/09/01 08:12:28;;;;;;;26.67;18.42;;;;;;;23.45;89.84;98553.53;4884307;29;20064;-86
2023/09/01 08:15:12;;;;;;;24.73;17.48;;;;;;;23.74;88.97;98558.69;4888649;29;20044;-86
2023/09/01 08:17:56;;;;;;;26.98;17.83;;;;;;;23.99;88.34;98550.50;4886270;29;20052;-85
2023/09/01 08:20:44;;;;;;;25.02;16.77;;;;;;;24.10;87.51;98550.06;4887188;29;20411;-87
2023/09/01 08:23:28;;;;;;;27.33;18.10;;;;;;;24.23;87.51;98550.38;4887758;29;20055;-87
2023/09/01 08:26:12;;;;;;;24.52;16.42;;;;;;;24.43;87.13;98559.91;4885175;29;20090;-86
2023/09/01 08:28:58;;;;;;;30.75;17.45;;;;;;;24.52;86.90;98565.38;4888011;29;20123;-86
2023/09/01 08:31:43;;;;;;;24.27;16.25;;;;;;;24.92;86.24;98564.88;4887939;29;20193;-87
2023/09/01 08:34:28;;;;;;;27.33;17.20;;;;;;;25.15;85.31;98573.72;4885389;29;21504;-85
2023/09/01 08:37:12;;;;;;;27.20;17.00;;;;;;;25.30;84.90;98579.88;4885299;29;20115;-85
2023/09/01 08:39:55;;;;;;;24.42;17.55;;;;;;;25.13;83.73;98575.16;4885075;29;20083;-86
2023/09/01 08:42:47;;;;;;;25.88;17.65;;;;;;;25.44;83.92;98577.13;4887087;29;20040;-86
2023/09/01 08:45:32;;;;;;;27.13;17.25;;;;;;;25.68;82.71;98582.22;4885919;29;20403;-85
2023/09/01 08:48:16;;;;;;;29.55;18.80;;;;;;;25.64;81.17;98583.94;4885728;29;20063;-85
2023/09/01 08:51:03;;;;;;;28.52;17.65;;;;;;;25.72;81.05;98591.25;4886082;29;20048;-85
2023/09/01 08:53:50;;;;;;;26.55;16.83;;;;;;;25.75;80.98;98595.22;4887814;29;20040;-86
2023/09/01 08:56:34;;;;;;;25.92;17.67;;;;;;;25.77;80.67;98593.84;4886475;29;20114;-85
2023/09/01 08:59:18;;;;;;;27.98;18.05;;;;;;;25.71;80.59;98600.41;4887315;29;20058;-86
2023/09/01 09:02:05;;;;;;;29.10;17.63;;;;;;;25.63;81.00;98603.84;4886951;29;20104;-85
2023/09/01 09:04:50;;;;;;;27.58;18.15;;;;;;;25.71;80.36;98603.09;4887277;29;20116;-86
2023/09/01 09:07:34;;;;;;;28.00;18.15;;;;;;;25.62;80.10;98615.72;4890095;29;20096;-85
2023/09/01 09:10:18;;;;;;;25.48;17.27;;;;;;;25.69;79.32;98605.31;4885953;29;20048;-85
2023/09/01 09:13:24;;;;;;;23.90;15.75;;;;;;;26.05;79.49;98614.41;4887299;29;20048;-86
2023/09/01 09:16:11;;;;;;;27.48;17.80;;;;;;;26.34;78.35;98611.25;4886173;29;20043;-87
2023/09/01 09:18:55;;;;;;;24.55;15.88;;;;;;;26.46;77.79;98604.47;4887632;29;20124;-85
2023/09/01 09:21:39;;;;;;;26.63;16.52;;;;;;;26.24;77.21;98622.25;4889571;29;20093;-86
2023/09/01 09:24:38;;;;;;;23.23;16.13;;;;;;;26.40;77.52;98624.56;4886153;29;20040;-86
2023/09/01 09:27:22;;;;;;;26.65;17.48;;;;;;;25.92;77.92;98622.22;4886631;29;20100;-87
2023/09/01 09:30:08;;;;;;;26.25;16.85;;;;;;;25.97;78.60;98628.56;4890334;29;20040;-86
2023/09/01 09:33:03;;;;;;;27.50;15.98;;;;;;;25.64;79.19;98629.63;4886483;29;20472;-87
2023/09/01 09:35:50;;;;;;;23.40;15.48;;;;;;;25.60;79.15;98628.66;4886312;29;20096;-86
2023/09/01 09:38:42;;;;;;;25.77;15.48;;;;;;;25.28;79.60;98625.03;4883129;29;20052;-87
2023/09/01 09:41:26;;;;;;;22.95;14.38;;;;;;;25.43;79.97;98632.75;4884153;29;20040;-86
2023/09/01 09:44:13;;;;;;;22.50;14.20;;;;;;;25.50;79.17;98632.38;4885936;29;20152;-85
2023/09/01 09:46:57;;;;;;;22.70;13.52;;;;;;;25.77;79.39;98631.47;4886787;29;20043;-87
2023/09/01 09:49:44;;;;;;;22.45;14.32;;;;;;;26.36;78.43;98627.88;4885838;29;20567;-86
2023/09/01 09:52:31;;;;;;;22.30;13.80;;;;;;;26.73;77.28;98622.28;4889675;29;20089;-86
2023/09/01 09:55:42;;;;;;;22.10;15.07;;;;;;;26.78;76.79;98640.22;4887796;29;20105;-86
2023/09/01 09:58:39;;;;;;;21.25;13.55;;;;;;;26.66;76.42;98652.34;4889705;29;20075;-85
2023/09/01 10:01:25;;;;;;;22.13;15.40;;;;;;;26.63;76.55;98647.59;4890412;29;20403;-86
2023/09/01 10:04:09;;;;;;;19.63;14.32;;;;;;;26.95;76.12;98650.25;4888146;29;20048;-86
2023/09/01 10:06:54;;;;;;;22.02;15.05;;;;;;;26.90;75.01;98651.19;4890473;29;20044;-85
2023/09/01 10:09:40;;;;;;;20.98;14.57;;;;;;;26.96;75.13;98651.06;4890403;29;20064;-86
2023/09/01 10:12:26;;;;;;;23.60;13.90;;;;;;;27.19;74.13;98655.22;4884097;29;20174;-86
2023/09/01 10:15:14;;;;;;;24.58;14.65;;;;;;;27.18;74.54;98653.63;4888097;29;20052;-86
2023/09/01 10:18:02;;;;;;;21.15;13.90;;;;;;;27.13;74.43;98653.78;4888687;29;20098;-87
2023/09/01 10:20:46;;;;;;;22.05;13.73;;;;;;;27.29;72.89;98656.00;4890715;29;20182;-87
2023/09/01 10:23:33;;;;;;;21.85;15.50;;;;;;;27.18;73.84;98652.81;4891907;29;20093;-86
2023/09/01 10:26:28;;;;;;;24.30;15.50;;;;;;;27.02;72.76;98655.97;4890237;29;20051;-86
2023/09/01 10:29:13;;;;;;;21.40;14.82;;;;;;;27.23;73.46;98650.78;4886823;29;20148;-88
2023/09/01 10:32:17;;;;;;;26.60;16.40;;;;;;;26.48;74.79;98650.69;4888927;29;20040;-87
2023/09/01 10:35:02;;;;;;;21.13;15.32;;;;;;;26.29;75.24;98654.41;4890673;29;20059;-86
2023/09/01 10:38:32;;;;;;;20.35;15.38;;;;;;;26.75;73.66;98654.28;4891124;29;20048;-87
2023/09/01 10:41:50;;;;;;;20.17;13.73;;;;;;;27.22;72.80;98664.56;4886529;29;20031;-88
2023/09/01 10:44:43;;;;;;;23.33;15.55;;;;;;;27.09;72.58;98666.28;4888507;29;20403;-86
2023/09/01 10:47:31;;;;;;;23.00;15.57;;;;;;;27.10;73.08;98662.47;4890204;29;20048;-88
2023/09/01 10:50:17;;;;;;;21.85;15.52;;;;;;;27.08;73.64;98645.84;4888848;29;20043;-87
2023/09/01 10:53:27;;;;;;;19.73;14.13;;;;;;;27.42;73.02;98657.75;4888045;29;20055;-87
2023/09/01 10:56:15;;;;;;;21.02;14.43;;;;;;;27.26;73.16;98675.50;4886374;29;20096;-87
2023/09/01 10:58:59;;;;;;;19.98;15.23;;;;;;;27.14;72.38;98671.53;4886809;29;20465;-86
2023/09/01 11:01:44;;;;;;;22.55;14.27;;;;;;;27.44;71.77;98674.41;4890619;29;20110;-87
2023/09/01 11:04:29;;;;;;;19.60;13.32;;;;;;;27.73;71.90;98673.03;4883210;29;20115;-87
2023/09/01 11:07:13;;;;;;;17.75;12.90;;;;;;;27.90;70.55;98671.41;4889184;29;20058;-88
2023/09/01 11:09:57;;;;;;;17.02;12.60;;;;;;;28.24;70.63;98675.19;4888077;29;20046;-87
2023/09/01 11:12:41;;;;;;;14.90;12.40;;;;;;;28.44;69.95;98678.28;4886667;29;20079;-86
2023/09/01 11:15:25;;;;;;;17.65;12.43;;;;;;;28.33;69.52;98673.25;4891206;29;20096;-87
2023/09/01 11:18:36;;;;;;;13.48;11.13;;;;;;;28.73;69.32;98669.44;4889386;29;20120;-86
2023/09/01 11:21:20;;;;;;;15.85;11.45;;;;;;;28.97;68.65;98672.69;4886871;29;20098;-87
2023/09/01 11:24:04;;;;;;;14.05;11.68;;;;;;;29.13;67.56;98672.91;4890216;29;20123;-87
2023/09/01 11:26:50;;;;;;;12.48;10.07;;;;;;;29.36;66.48;98673.38;4887777;29;20135;-86
2023/09/01 11:29:34;;;;;;;13.48;11.27;;;;;;;29.30;65.64;98677.41;4886567;29;20093;-86
2023/09/01 11:32:27;;;;;;;14.90;11.27;;;;;;;29.44;64.39;98683.38;4888503;29;20039;-87
2023/09/01 11:35:28;;;;;;;15.38;12.10;;;;;;;29.39;64.80;98691.66;4888347;29;20102;-86
2023/09/01 11:38:20;;;;;;;14.50;11.93;;;;;;;29.09;66.42;98689.00;4885698;29;20115;-86
2023/09/01 11:41:11;;;;;;;14.10;11.35;;;;;;;28.98;67.08;98690.47;4885636;29;20080;-87
2023/09/01 11:43:56;;;;;;;16.88;11.18;;;;;;;28.61;67.01;98689.03;4888606;29;20143;-88
2023/09/01 11:46:41;;;;;;;18.15;13.30;;;;;;;28.69;65.91;98689.31;4888848;29;20483;-86
2023/09/01 11:49:26;;;;;;;13.98;11.15;;;;;;;29.19;67.29;98680.50;4887436;29;20043;-86
2023/09/01 11:52:10;;;;;;;14.23;12.15;;;;;;;29.26;65.79;98689.97;4890223;29;20131;-86
2023/09/01 11:54:55;;;;;;;13.93;11.50;;;;;;;29.60;64.61;98682.78;4890170;29;20502;-87
2023/09/01 11:57:39;;;;;;;14.02;11.00;;;;;;;29.71;64.65;98683.97;4887499;29;20108;-86
2023/09/01 12:00:31;;;;;;;13.55;10.90;;;;;;;30.08;65.01;98690.66;4885811;29;20088;-87
2023/09/01 12:03:22;;;;;;;14.32;11.77;;;;;;;29.92;62.83;98689.31;4888404;29;20089;-86
2023/09/01 12:06:20;;;;;;;15.43;11.07;;;;;;;30.27;62.93;98699.06;4889555;29;20124;-88
2023/09/01 12:09:15;;;;;;;14.25;10.80;;;;;;;29.38;62.43;98697.38;4888743;29;20100;-88
2023/09/01 12:12:02;;;;;;;11.65;9.85;;;;;;;29.64;62.47;98706.13;4885377;29;20514;-86
2023/09/01 12:14:47;;;;;;;10.35;9.13;;;;;;;30.01;61.60;98700.06;4888071;29;20098;-86
2023/09/01 12:17:31;;;;;;;11.40;9.43;;;;;;;29.62;60.98;98704.88;4884848;29;20079;-86
2023/09/01 12:20:15;;;;;;;15.05;9.90;;;;;;;29.71;61.04;98715.63;4890074;29;20044;-86
2023/09/01 12:22:59;;;;;;;12.20;9.15;;;;;;;30.09;61.73;98714.66;4888768;29;20119;-86
2023/09/01 12:25:43;;;;;;;13.13;11.07;;;;;;;29.95;60.04;98714.13;4887566;29;20060;-88
2023/09/01 12:28:28;;;;;;;16.42;12.05;;;;;;;29.79;60.95;98717.47;4889381;29;20071;-86
2023/09/01 12:31:14;;;;;;;14.88;11.60;;;;;;;29.38;61.31;98714.41;4887776;29;20052;-86
2023/09/01 12:33:58;;;;;;;16.95;13.93;;;;;;;29.42;61.75;98719.97;4887996;29;20128;-87
2023/09/01 12:36:42;;;;;;;15.32;12.88;;;;;;;29.20;61.39;98714.50;4888893;29;20048;-87
2023/09/01 12:39:26;;;;;;;14.68;11.50;;;;;;;29.69;60.91;98718.66;4889351;29;20562;-86
2023/09/01 12:42:10;;;;;;;12.80;11.48;;;;;;;29.74;60.59;98715.75;4884122;29;20242;-85
2023/09/01 12:44:54;;;;;;;16.30;11.07;;;;;;;29.63;61.02;98717.25;4883766;29;20067;-87